Time;durP1;ratioP1;P1;durP2;ratioP2;P2;SDS_P1;SDS_P2;PMS_P1;PMS_P2;Temp;Humidity;BMP_temperature;BMP_pressure;BME280_temperature;BME280_humidity;BME280_pressure;Samples;Min_cycle;Max_cycle;Signal;HPM_P1;HPM_P2
2022/05/20 00:00:42;;;;;;;16.02;10.68;;;;;;;;;;5011182;28;20225;-62
2022/05/20 00:03:08;;;;;;;11.52;9.10;;;;;;;;;;5009047;28;20236;-63
2022/05/20 00:05:33;;;;;;;13.82;9.77;;;;;;;;;;5011211;28;20295;-63
2022/05/20 00:07:59;;;;;;;13.90;10.07;;;;;;;;;;5011015;28;20266;-63
2022/05/20 00:10:24;;;;;;;12.10;8.65;;;;;;;;;;5010367;28;20251;-63
2022/05/20 00:12:49;;;;;;;18.38;10.90;;;;;;;;;;5011137;28;20240;-63
2022/05/20 00:15:16;;;;;;;14.05;9.30;;;;;;;;;;5022266;28;20228;-63
2022/05/20 00:17:42;;;;;;;15.52;10.27;;;;;;;;;;5030879;28;20219;-62
2022/05/20 00:20:08;;;;;;;16.42;10.65;;;;;;;;;;5030234;28;20733;-63
2022/05/20 00:22:33;;;;;;;15.15;10.63;;;;;;;;;;5030264;28;20299;-63
2022/05/20 00:27:42;;;;;;;12.40;9.40;;;;;;;;;;5050442;28;20245;-62
2022/05/20 00:30:08;;;;;;;14.15;10.65;;;;;;;;;;5049494;28;20215;-63
2022/05/20 00:32:33;;;;;;;14.10;10.05;;;;;;;;;;5043305;28;20240;-62
2022/05/20 00:34:59;;;;;;;12.43;9.30;;;;;;;;;;5030513;28;20643;-63
2022/05/20 00:37:24;;;;;;;14.45;10.60;;;;;;;;;;5029647;28;20200;-63
2022/05/20 00:39:49;;;;;;;15.65;10.77;;;;;;;;;;5030281;28;20517;-62
2022/05/20 00:42:16;;;;;;;14.60;10.32;;;;;;;;;;5030211;28;20204;-63
2022/05/20 00:44:41;;;;;;;13.90;9.75;;;;;;;;;;5048579;28;20243;-63
2022/05/20 00:47:06;;;;;;;15.02;10.45;;;;;;;;;;5049925;28;20258;-62
2022/05/20 00:49:32;;;;;;;15.18;10.57;;;;;;;;;;5050447;28;20219;-62
2022/05/20 00:51:58;;;;;;;16.30;10.85;;;;;;;;;;5049866;28;20345;-62
2022/05/20 00:54:26;;;;;;;14.00;9.80;;;;;;;;;;5051475;28;20223;-62
2022/05/20 00:56:55;;;;;;;13.27;10.02;;;;;;;;;;5054113;28;20226;-62
2022/05/20 00:59:21;;;;;;;12.45;9.80;;;;;;;;;;5053028;28;20590;-62
2022/05/20 01:01:47;;;;;;;12.63;9.52;;;;;;;;;;5035695;28;20250;-62
2022/05/20 01:04:14;;;;;;;12.93;8.75;;;;;;;;;;5053171;28;20596;-62
2022/05/20 01:06:39;;;;;;;12.93;9.73;;;;;;;;;;5035569;28;20265;-62
2022/05/20 01:09:04;;;;;;;13.23;9.18;;;;;;;;;;5053037;28;20606;-62
2022/05/20 01:11:29;;;;;;;12.10;9.27;;;;;;;;;;5052845;28;20254;-62
2022/05/20 01:13:55;;;;;;;12.98;9.43;;;;;;;;;;5052606;28;20246;-62
2022/05/20 01:16:20;;;;;;;13.95;9.38;;;;;;;;;;5048529;28;20242;-62
2022/05/20 01:18:46;;;;;;;14.18;10.40;;;;;;;;;;5033155;28;20204;-62
2022/05/20 01:21:11;;;;;;;11.70;8.90;;;;;;;;;;5048092;28;20208;-62
2022/05/20 01:23:36;;;;;;;14.00;9.45;;;;;;;;;;5033629;28;20243;-62
2022/05/20 01:26:01;;;;;;;15.52;9.95;;;;;;;;;;5032587;28;20231;-62
2022/05/20 01:28:28;;;;;;;15.48;10.13;;;;;;;;;;5033510;28;20208;-62
2022/05/20 01:30:56;;;;;;;12.00;9.35;;;;;;;;;;5033504;28;20243;-62
2022/05/20 01:33:23;;;;;;;13.20;8.88;;;;;;;;;;5050895;28;20223;-62
2022/05/20 01:35:48;;;;;;;12.48;10.25;;;;;;;;;;5052844;28;20218;-62
2022/05/20 01:38:13;;;;;;;13.80;10.45;;;;;;;;;;5052717;28;20580;-62
2022/05/20 01:40:43;;;;;;;15.27;9.93;;;;;;;;;;5052459;28;20222;-62
2022/05/20 01:43:12;;;;;;;14.85;8.77;;;;;;;;;;5047061;28;20215;-62
2022/05/20 01:45:40;;;;;;;12.90;9.45;;;;;;;;;;5032093;28;20261;-62
2022/05/20 01:48:08;;;;;;;11.63;9.35;;;;;;;;;;5032316;28;20223;-63
2022/05/20 01:50:36;;;;;;;11.48;8.75;;;;;;;;;;5031407;28;20298;-62
2022/05/20 01:53:03;;;;;;;12.35;9.57;;;;;;;;;;5031463;28;20273;-62
2022/05/20 01:55:35;;;;;;;13.43;9.48;;;;;;;;;;5031289;28;20220;-62
2022/05/20 01:58:02;;;;;;;12.93;8.43;;;;;;;;;;5032865;28;20216;-62
2022/05/20 02:00:29;;;;;;;11.75;8.73;;;;;;;;;;5031673;28;20259;-62
2022/05/20 02:03:02;;;;;;;13.25;9.15;;;;;;;;;;5030877;28;20234;-62
2022/05/20 02:05:31;;;;;;;12.55;9.02;;;;;;;;;;5031228;28;20219;-62
2022/05/20 02:07:59;;;;;;;13.45;9.27;;;;;;;;;;5032482;28;20203;-62
2022/05/20 02:10:28;;;;;;;12.10;9.45;;;;;;;;;;5030865;28;20343;-62
2022/05/20 02:12:54;;;;;;;14.07;9.30;;;;;;;;;;5031671;28;20216;-62
2022/05/20 02:15:21;;;;;;;12.27;9.18;;;;;;;;;;5029548;28;20234;-62
2022/05/20 02:17:48;;;;;;;11.23;9.07;;;;;;;;;;5027853;28;20215;-62
2022/05/20 02:20:15;;;;;;;12.15;9.73;;;;;;;;;;5012068;28;20241;-62
2022/05/20 02:22:42;;;;;;;12.65;9.43;;;;;;;;;;5012331;28;20217;-62
2022/05/20 02:25:09;;;;;;;12.82;9.90;;;;;;;;;;5027336;28;20275;-62
2022/05/20 02:27:36;;;;;;;12.63;8.90;;;;;;;;;;5012795;28;20632;-62
2022/05/20 02:30:01;;;;;;;12.93;9.40;;;;;;;;;;5010270;28;20213;-62
2022/05/20 02:32:31;;;;;;;13.05;9.68;;;;;;;;;;5018063;28;20223;-62
2022/05/20 02:34:56;;;;;;;13.43;8.98;;;;;;;;;;5031956;28;20228;-62
2022/05/20 02:37:24;;;;;;;13.93;9.10;;;;;;;;;;5031336;28;20269;-62
2022/05/20 02:39:49;;;;;;;13.40;8.95;;;;;;;;;;5047426;28;20211;-62
2022/05/20 02:42:14;;;;;;;12.45;9.20;;;;;;;;;;5031963;28;20281;-63
2022/05/20 02:44:40;;;;;;;10.40;9.00;;;;;;;;;;5013435;28;20243;-63
2022/05/20 02:47:05;;;;;;;13.80;9.57;;;;;;;;;;5011776;28;20213;-62
2022/05/20 02:49:30;;;;;;;13.95;9.68;;;;;;;;;;5012135;28;20216;-63
2022/05/20 02:51:56;;;;;;;11.40;9.15;;;;;;;;;;5011493;28;20268;-63
2022/05/20 02:54:21;;;;;;;14.50;9.98;;;;;;;;;;5011691;28;20220;-62
2022/05/20 02:56:46;;;;;;;11.80;9.23;;;;;;;;;;5012302;28;20212;-62
2022/05/20 03:04:40;;;;;;;14.38;9.77;;;;;;;;;;5029858;28;20238;-63
2022/05/20 03:07:05;;;;;;;11.95;9.48;;;;;;;;;;5031031;28;20216;-62
2022/05/20 03:09:30;;;;;;;16.45;9.40;;;;;;;;;;5031792;28;20223;-62
2022/05/20 03:11:56;;;;;;;12.15;9.18;;;;;;;;;;5030833;28;20298;-62
2022/05/20 03:14:21;;;;;;;13.48;9.45;;;;;;;;;;5031057;28;20231;-62
2022/05/20 03:16:47;;;;;;;13.02;9.55;;;;;;;;;;5016731;28;20254;-62
2022/05/20 03:19:12;;;;;;;11.00;8.68;;;;;;;;;;5011139;28;20319;-62
2022/05/20 03:21:38;;;;;;;14.55;10.05;;;;;;;;;;5011632;28;20671;-62
2022/05/20 03:24:04;;;;;;;11.77;9.60;;;;;;;;;;5011989;28;20209;-62
2022/05/20 03:26:29;;;;;;;12.68;9.77;;;;;;;;;;5011176;28;20205;-62
2022/05/20 03:28:55;;;;;;;14.55;10.25;;;;;;;;;;5011350;28;20219;-62
2022/05/20 03:31:20;;;;;;;12.38;10.10;;;;;;;;;;5011141;28;20668;-62
2022/05/20 03:33:46;;;;;;;11.65;9.50;;;;;;;;;;5027854;28;20220;-62
2022/05/20 03:36:12;;;;;;;15.90;10.07;;;;;;;;;;5030817;28;20291;-62
2022/05/20 03:38:38;;;;;;;12.60;9.02;;;;;;;;;;5031505;28;20219;-62
2022/05/20 03:41:03;;;;;;;13.82;10.00;;;;;;;;;;5030145;28;20215;-62
2022/05/20 03:43:28;;;;;;;12.40;9.60;;;;;;;;;;5022712;28;20212;-62
2022/05/20 03:45:54;;;;;;;15.10;10.27;;;;;;;;;;5011259;28;20213;-62
2022/05/20 03:48:19;;;;;;;12.35;10.35;;;;;;;;;;5010615;28;20607;-62
2022/05/20 03:50:44;;;;;;;12.95;10.38;;;;;;;;;;5011276;28;20212;-62
2022/05/20 03:53:10;;;;;;;14.63;10.57;;;;;;;;;;5010468;28;20274;-62
2022/05/20 03:55:35;;;;;;;12.05;10.05;;;;;;;;;;5011303;28;20252;-62
2022/05/20 03:58:00;;;;;;;15.57;10.77;;;;;;;;;;5011434;28;20234;-62
2022/05/20 04:00:25;;;;;;;12.52;10.13;;;;;;;;;;5030050;28;20363;-62
2022/05/20 04:02:51;;;;;;;14.02;10.40;;;;;;;;;;5034942;28;20243;-62
2022/05/20 04:05:16;;;;;;;13.18;10.45;;;;;;;;;;5050642;28;20230;-63
2022/05/20 04:07:42;;;;;;;14.82;10.65;;;;;;;;;;5050383;28;20273;-62
2022/05/20 04:10:07;;;;;;;15.85;11.63;;;;;;;;;;5050244;28;20260;-62
2022/05/20 04:12:34;;;;;;;16.48;11.45;;;;;;;;;;5050632;28;20214;-62
2022/05/20 04:14:59;;;;;;;15.30;10.95;;;;;;;;;;5040487;28;20223;-62
2022/05/20 04:17:25;;;;;;;13.40;11.50;;;;;;;;;;5030070;28;20216;-62
2022/05/20 04:19:50;;;;;;;15.88;12.23;;;;;;;;;;5031060;28;20211;-62
2022/05/20 04:22:16;;;;;;;15.48;12.05;;;;;;;;;;5030050;28;20220;-62
2022/05/20 04:24:42;;;;;;;15.38;12.13;;;;;;;;;;5012966;28;20218;-62
2022/05/20 04:27:07;;;;;;;13.18;11.15;;;;;;;;;;5030180;28;20218;-62
2022/05/20 04:29:32;;;;;;;12.50;10.85;;;;;;;;;;5032541;28;20224;-62
2022/05/20 04:31:58;;;;;;;15.30;11.38;;;;;;;;;;5036124;28;20227;-62
2022/05/20 04:34:23;;;;;;;13.80;11.20;;;;;;;;;;5053954;28;20247;-62
2022/05/20 04:36:48;;;;;;;15.48;10.38;;;;;;;;;;5047468;28;20216;-62
2022/05/20 04:39:13;;;;;;;13.18;10.85;;;;;;;;;;5033733;28;20571;-62
2022/05/20 04:47:08;;;;;;;14.73;11.70;;;;;;;;;;5033319;28;20258;-62
2022/05/20 04:49:33;;;;;;;14.82;11.90;;;;;;;;;;5005882;28;20219;-62
2022/05/20 04:52:00;;;;;;;15.10;11.02;;;;;;;;;;5014324;28;20224;-62
2022/05/20 04:57:09;;;;;;;13.77;11.07;;;;;;;;;;5033192;28;20218;-62
2022/05/20 04:59:35;;;;;;;14.30;12.07;;;;;;;;;;5034166;28;20212;-63
2022/05/20 05:02:00;;;;;;;14.98;11.25;;;;;;;;;;5034367;28;20207;-63
2022/05/20 05:04:26;;;;;;;13.93;11.20;;;;;;;;;;5016076;28;20228;-62
2022/05/20 05:06:52;;;;;;;12.85;10.77;;;;;;;;;;5013899;28;20730;-62
2022/05/20 05:09:18;;;;;;;14.30;10.35;;;;;;;;;;5013251;28;20217;-62
2022/05/20 05:11:43;;;;;;;13.73;10.43;;;;;;;;;;5013265;28;20219;-62
2022/05/20 05:14:09;;;;;;;13.35;10.55;;;;;;;;;;5011082;28;20307;-62
2022/05/20 05:16:35;;;;;;;12.38;10.60;;;;;;;;;;4994822;28;20221;-62
2022/05/20 05:19:00;;;;;;;13.20;11.32;;;;;;;;;;4994079;28;20209;-63
2022/05/20 05:21:25;;;;;;;15.70;12.98;;;;;;;;;;5013281;28;20266;-62
2022/05/20 05:23:50;;;;;;;16.35;14.25;;;;;;;;;;5013850;28;20212;-63
2022/05/20 05:26:16;;;;;;;17.52;15.18;;;;;;;;;;5012614;28;20214;-62
2022/05/20 05:28:41;;;;;;;17.20;14.32;;;;;;;;;;5013877;28;20216;-62
2022/05/20 05:31:06;;;;;;;17.52;14.63;;;;;;;;;;5013420;28;20737;-62
2022/05/20 05:33:32;;;;;;;18.40;14.82;;;;;;;;;;5028178;28;20223;-63
2022/05/20 05:35:57;;;;;;;18.30;15.48;;;;;;;;;;5033252;28;20230;-62
2022/05/20 05:38:22;;;;;;;16.60;14.40;;;;;;;;;;5032853;28;20211;-62
2022/05/20 05:40:48;;;;;;;18.50;14.73;;;;;;;;;;5032101;28;20231;-63
2022/05/20 05:43:13;;;;;;;17.45;15.15;;;;;;;;;;5025396;28;20315;-63
2022/05/20 05:45:39;;;;;;;16.90;14.38;;;;;;;;;;5013310;28;20219;-63
2022/05/20 05:48:06;;;;;;;19.98;14.68;;;;;;;;;;5013057;28;20672;-62
2022/05/20 05:50:32;;;;;;;19.73;15.35;;;;;;;;;;5013502;28;20573;-63
2022/05/20 05:52:57;;;;;;;18.42;14.27;;;;;;;;;;5011504;28;20743;-63
2022/05/20 05:55:23;;;;;;;17.65;13.35;;;;;;;;;;5012150;28;20583;-63
2022/05/20 05:57:48;;;;;;;16.85;14.23;;;;;;;;;;5013313;28;20223;-63
2022/05/20 06:00:14;;;;;;;20.13;14.45;;;;;;;;;;5028989;28;20223;-63
2022/05/20 06:02:39;;;;;;;16.90;13.55;;;;;;;;;;5035424;28;20757;-63
2022/05/20 06:05:04;;;;;;;17.98;12.57;;;;;;;;;;5052508;28;20218;-63
2022/05/20 06:07:30;;;;;;;15.90;13.30;;;;;;;;;;5052002;28;20306;-63
2022/05/20 06:09:55;;;;;;;17.92;13.60;;;;;;;;;;5052132;28;20239;-63
2022/05/20 06:12:21;;;;;;;15.55;12.82;;;;;;;;;;5051994;28;20213;-63
2022/05/20 06:14:46;;;;;;;18.05;12.60;;;;;;;;;;5036330;28;20263;-63
2022/05/20 06:17:12;;;;;;;20.10;13.68;;;;;;;;;;5012441;28;20216;-63
2022/05/20 06:19:37;;;;;;;17.60;11.65;;;;;;;;;;5012859;28;20216;-63
2022/05/20 06:22:03;;;;;;;15.95;12.70;;;;;;;;;;5011545;28;20227;-62
2022/05/20 06:24:28;;;;;;;15.32;12.60;;;;;;;;;;5012195;28;20212;-62
2022/05/20 06:26:54;;;;;;;20.13;14.85;;;;;;;;;;5012503;28;20239;-62
2022/05/20 06:29:19;;;;;;;19.35;13.68;;;;;;;;;;5011931;28;20804;-62
2022/05/20 06:31:45;;;;;;;18.90;13.98;;;;;;;;;;5012861;28;20228;-62
2022/05/20 06:34:10;;;;;;;19.17;14.30;;;;;;;;;;5031901;28;20597;-63
2022/05/20 06:42:03;;;;;;;18.73;14.60;;;;;;;;;;5031081;28;20258;-62
2022/05/20 06:44:28;;;;;;;22.83;16.38;;;;;;;;;;5015788;28;20216;-63
2022/05/20 06:46:53;;;;;;;20.20;15.77;;;;;;;;;;5012363;28;20212;-62
2022/05/20 06:49:19;;;;;;;23.27;16.67;;;;;;;;;;5011223;28;20222;-63
2022/05/20 06:51:44;;;;;;;23.42;16.40;;;;;;;;;;5011149;28;20204;-63
2022/05/20 06:54:10;;;;;;;20.60;16.35;;;;;;;;;;5011545;28;20290;-63
2022/05/20 06:56:36;;;;;;;19.33;15.90;;;;;;;;;;5010452;28;20814;-62
2022/05/20 06:59:02;;;;;;;23.13;17.67;;;;;;;;;;5011536;28;20555;-63
2022/05/20 07:01:28;;;;;;;25.88;20.45;;;;;;;;;;5012051;28;20217;-63
2022/05/20 07:03:53;;;;;;;22.90;17.77;;;;;;;;;;5011122;28;20688;-62
2022/05/20 07:06:18;;;;;;;23.67;19.48;;;;;;;;;;5011383;28;20658;-62
2022/05/20 07:08:48;;;;;;;26.50;20.27;;;;;;;;;;5012003;28;20610;-63
2022/05/20 07:11:13;;;;;;;25.55;18.60;;;;;;;;;;5011057;28;20274;-63
2022/05/20 07:13:38;;;;;;;24.92;17.63;;;;;;;;;;5011695;28;20595;-63
2022/05/20 07:16:04;;;;;;;23.60;18.58;;;;;;;;;;5011858;28;20641;-63
2022/05/20 07:18:29;;;;;;;21.80;16.25;;;;;;;;;;5011453;28;20212;-63
2022/05/20 07:20:54;;;;;;;21.15;16.05;;;;;;;;;;5011377;28;20652;-63
2022/05/20 07:23:22;;;;;;;21.23;16.80;;;;;;;;;;4993558;28;20216;-63
2022/05/20 07:25:50;;;;;;;21.20;16.92;;;;;;;;;;5011285;28;20212;-63
2022/05/20 07:28:15;;;;;;;23.92;18.67;;;;;;;;;;5011043;28;20208;-63
2022/05/20 07:30:40;;;;;;;25.10;20.38;;;;;;;;;;5012086;28;20342;-63
2022/05/20 07:33:06;;;;;;;23.38;18.35;;;;;;;;;;5021707;28;20214;-63
2022/05/20 07:35:31;;;;;;;23.23;18.40;;;;;;;;;;5031036;28;20655;-64
2022/05/20 07:37:57;;;;;;;25.42;19.58;;;;;;;;;;5031150;28;20269;-63
2022/05/20 07:40:22;;;;;;;24.17;18.95;;;;;;;;;;5030046;28;20746;-63
2022/05/20 07:42:47;;;;;;;21.20;16.52;;;;;;;;;;5028422;28;20213;-63
2022/05/20 07:45:13;;;;;;;22.75;17.55;;;;;;;;;;5010653;28;20692;-63
2022/05/20 07:47:39;;;;;;;21.42;17.27;;;;;;;;;;5011167;28;20219;-63
2022/05/20 07:50:04;;;;;;;22.60;18.70;;;;;;;;;;5010704;28;20200;-63
2022/05/20 07:55:15;;;;;;;25.40;19.42;;;;;;;;;;5010940;28;20282;-63
2022/05/20 07:57:40;;;;;;;22.60;20.02;;;;;;;;;;5011441;28;20621;-63
2022/05/20 08:00:06;;;;;;;24.02;19.40;;;;;;;;;;5010224;28;20227;-63
2022/05/20 08:02:31;;;;;;;21.10;18.13;;;;;;;;;;5012182;28;20300;-63
2022/05/20 08:04:58;;;;;;;24.58;21.67;;;;;;;;;;5016381;28;20235;-64
2022/05/20 08:07:32;;;;;;;21.80;16.60;;;;;;;;;;5034157;28;20211;-63
2022/05/20 08:09:59;;;;;;;21.80;16.05;;;;;;;;;;5017561;28;20215;-63
2022/05/20 08:12:24;;;;;;;21.30;16.30;;;;;;;;;;5034521;28;20302;-63
2022/05/20 08:14:50;;;;;;;25.00;17.02;;;;;;;;;;5034329;28;20310;-63
2022/05/20 08:17:15;;;;;;;17.42;13.85;;;;;;;;;;5034090;28;20576;-63
2022/05/20 08:19:40;;;;;;;18.92;12.40;;;;;;;;;;5034641;28;20675;-64
2022/05/20 08:22:06;;;;;;;18.67;14.27;;;;;;;;;;5034041;28;20246;-64
2022/05/20 08:24:32;;;;;;;18.92;14.82;;;;;;;;;;5034910;28;20272;-64
2022/05/20 08:26:57;;;;;;;18.98;14.52;;;;;;;;;;5034902;28;20216;-63
2022/05/20 08:29:22;;;;;;;17.83;15.52;;;;;;;;;;5033351;28;20216;-63
2022/05/20 08:31:47;;;;;;;16.30;12.70;;;;;;;;;;5035115;28;20227;-63
2022/05/20 08:34:14;;;;;;;15.35;12.95;;;;;;;;;;5053838;28;20227;-63
2022/05/20 08:36:39;;;;;;;17.02;13.32;;;;;;;;;;5053816;28;20214;-63
2022/05/20 08:39:05;;;;;;;17.35;12.32;;;;;;;;;;5054202;28;20215;-63
2022/05/20 08:41:36;;;;;;;17.90;12.35;;;;;;;;;;5054030;28;20298;-64
2022/05/20 08:44:01;;;;;;;16.38;11.27;;;;;;;;;;5040767;28;20693;-63
2022/05/20 08:46:27;;;;;;;17.95;11.60;;;;;;;;;;5016530;28;20247;-63
2022/05/20 08:48:53;;;;;;;20.27;13.00;;;;;;;;;;5033826;28;20295;-63
2022/05/20 08:51:18;;;;;;;19.10;13.60;;;;;;;;;;5033826;28;20216;-63
2022/05/20 08:53:45;;;;;;;18.63;14.63;;;;;;;;;;5016771;28;20214;-63
2022/05/20 08:56:12;;;;;;;15.48;10.18;;;;;;;;;;5033639;28;20294;-63
2022/05/20 08:58:39;;;;;;;14.45;12.25;;;;;;;;;;5033757;28;20674;-63
2022/05/20 09:01:04;;;;;;;15.25;10.90;;;;;;;;;;5015632;28;20501;-64
2022/05/20 09:03:30;;;;;;;16.20;11.77;;;;;;;;;;5023881;28;20247;-63
2022/05/20 09:06:03;;;;;;;20.30;11.70;;;;;;;;;;5014218;28;20212;-63
2022/05/20 09:08:28;;;;;;;15.45;12.05;;;;;;;;;;4985136;28;20221;-63
2022/05/20 09:10:54;;;;;;;17.45;12.27;;;;;;;;;;4994094;28;20577;-63
2022/05/20 09:13:22;;;;;;;15.43;11.82;;;;;;;;;;4993685;28;20233;-63
2022/05/20 09:15:57;;;;;;;18.10;13.57;;;;;;;;;;5008391;28;20221;-64
2022/05/20 09:18:28;;;;;;;15.88;12.40;;;;;;;;;;5012752;28;20591;-63
2022/05/20 09:20:54;;;;;;;15.77;12.65;;;;;;;;;;5014152;28;20212;-64
2022/05/20 09:23:20;;;;;;;18.55;12.52;;;;;;;;;;5013894;28;20553;-64
2022/05/20 09:25:47;;;;;;;15.70;11.63;;;;;;;;;;5013023;28;20683;-63
2022/05/20 09:28:24;;;;;;;16.48;13.57;;;;;;;;;;5013174;28;20224;-63
2022/05/20 09:30:50;;;;;;;16.60;12.10;;;;;;;;;;4995467;28;20215;-63
2022/05/20 09:33:24;;;;;;;16.88;11.23;;;;;;;;;;5025972;28;20242;-63
2022/05/20 09:35:54;;;;;;;17.42;12.82;;;;;;;;;;5016045;28;20234;-63
2022/05/20 09:38:36;;;;;;;15.20;11.40;;;;;;;;;;5032423;28;20653;-63
2022/05/20 09:41:09;;;;;;;18.80;12.65;;;;;;;;;;5032537;28;20223;-63
2022/05/20 09:43:37;;;;;;;15.63;12.05;;;;;;;;;;5024330;28;20646;-63
2022/05/20 09:46:03;;;;;;;15.35;10.60;;;;;;;;;;5012725;28;20216;-63
2022/05/20 09:48:47;;;;;;;14.73;9.68;;;;;;;;;;5013493;28;20636;-63
2022/05/20 09:51:14;;;;;;;15.02;9.45;;;;;;;;;;5012721;28;20221;-63
2022/05/20 09:53:40;;;;;;;13.30;9.90;;;;;;;;;;5012678;28;20212;-63
2022/05/20 09:56:13;;;;;;;14.15;8.80;;;;;;;;;;5012973;28;20213;-63
2022/05/20 09:58:38;;;;;;;13.60;8.18;;;;;;;;;;5013270;28;20677;-63
2022/05/20 10:01:05;;;;;;;12.82;7.47;;;;;;;;;;4994507;28;20204;-63
2022/05/20 10:03:31;;;;;;;13.95;8.80;;;;;;;;;;5004612;28;20231;-63
2022/05/20 10:05:59;;;;;;;13.27;9.20;;;;;;;;;;5032221;28;20269;-63
2022/05/20 10:08:27;;;;;;;13.23;8.30;;;;;;;;;;5032075;28;20207;-63
2022/05/20 10:10:54;;;;;;;11.15;7.40;;;;;;;;;;5031806;28;20220;-64
2022/05/20 10:13:39;;;;;;;11.95;6.00;;;;;;;;;;5031931;28;20692;-63
2022/05/20 10:16:10;;;;;;;9.68;5.63;;;;;;;;;;5031785;28;20215;-63
2022/05/20 10:18:50;;;;;;;13.05;6.05;;;;;;;;;;5015338;28;20207;-63
2022/05/20 10:21:34;;;;;;;10.30;6.38;;;;;;;;;;5031980;28;20580;-63
2022/05/20 10:24:03;;;;;;;10.60;6.10;;;;;;;;;;5032605;28;20215;-63
2022/05/20 10:26:39;;;;;;;11.93;6.40;;;;;;;;;;5031161;28;20281;-63
2022/05/20 10:34:37;;;;;;;11.95;7.43;;;;;;;;;;5036268;28;20229;-63
2022/05/20 10:37:07;;;;;;;12.98;7.85;;;;;;;;;;5051482;28;20211;-63
2022/05/20 10:39:39;;;;;;;10.32;7.53;;;;;;;;;;5034333;28;20215;-63
2022/05/20 10:42:04;;;;;;;12.45;6.07;;;;;;;;;;5033416;28;20264;-64
2022/05/20 10:50:23;;;;;;;10.70;6.40;;;;;;;;;;5030978;28;20620;-63
2022/05/20 10:52:54;;;;;;;13.30;6.32;;;;;;;;;;5032162;28;20218;-63
2022/05/20 10:55:23;;;;;;;12.43;7.45;;;;;;;;;;5013528;28;20710;-64
2022/05/20 10:57:54;;;;;;;11.73;7.25;;;;;;;;;;5013948;28;20223;-63
2022/05/20 11:00:21;;;;;;;12.10;7.47;;;;;;;;;;5013635;28;20242;-63
2022/05/20 11:03:01;;;;;;;11.07;6.30;;;;;;;;;;4993560;28;20228;-63
2022/05/20 11:05:32;;;;;;;9.30;5.55;;;;;;;;;;5012071;28;20286;-63
2022/05/20 11:08:09;;;;;;;12.10;6.95;;;;;;;;;;5012138;28;20220;-63
2022/05/20 11:10:52;;;;;;;13.05;7.90;;;;;;;;;;5010847;28;20587;-63
2022/05/20 11:13:33;;;;;;;10.25;7.90;;;;;;;;;;5011533;28;20218;-63
2022/05/20 11:16:06;;;;;;;14.88;8.35;;;;;;;;;;5012172;28;20224;-63
2022/05/20 11:18:39;;;;;;;13.85;9.10;;;;;;;;;;5010893;28;20242;-63
2022/05/20 11:21:14;;;;;;;12.73;9.35;;;;;;;;;;5011511;28;20212;-63
2022/05/20 11:23:40;;;;;;;14.63;10.05;;;;;;;;;;5011448;28;20216;-63
2022/05/20 11:26:06;;;;;;;15.27;10.50;;;;;;;;;;5011580;28;20679;-64
2022/05/20 11:28:46;;;;;;;15.50;10.25;;;;;;;;;;5012199;28;20275;-64
2022/05/20 11:31:17;;;;;;;12.52;9.70;;;;;;;;;;5009182;28;20548;-63
2022/05/20 11:33:46;;;;;;;15.43;11.05;;;;;;;;;;5026417;28;20218;-63
2022/05/20 11:36:21;;;;;;;16.15;10.90;;;;;;;;;;5029756;28;20689;-63
2022/05/20 11:38:53;;;;;;;13.20;10.45;;;;;;;;;;5030731;28;20698;-63
2022/05/20 11:41:24;;;;;;;14.48;10.65;;;;;;;;;;5031146;28;20208;-64
2022/05/20 11:43:51;;;;;;;12.32;10.07;;;;;;;;;;5018926;28;20358;-63
2022/05/20 11:46:17;;;;;;;14.13;9.60;;;;;;;;;;5010337;28;20291;-63
2022/05/20 11:48:42;;;;;;;12.95;8.52;;;;;;;;;;5011671;28;20212;-63
2022/05/20 11:51:22;;;;;;;13.48;9.05;;;;;;;;;;5011407;28;20220;-63
2022/05/20 11:53:47;;;;;;;13.05;9.38;;;;;;;;;;5010049;28;20733;-63
2022/05/20 11:56:17;;;;;;;14.00;9.75;;;;;;;;;;5011222;28;20217;-63
2022/05/20 11:58:44;;;;;;;14.70;9.93;;;;;;;;;;5011073;28;20282;-63
2022/05/20 12:01:09;;;;;;;15.57;10.88;;;;;;;;;;5009224;28;20327;-63
2022/05/20 12:04:07;;;;;;;15.75;11.35;;;;;;;;;;5021314;28;20699;-63
2022/05/20 12:06:20;;;;;;;15.65;12.65;;;;;;;;;;5029970;28;20679;-63
2022/05/20 12:08:47;;;;;;;13.68;11.45;;;;;;;;;;5030820;28;20213;-63
2022/05/20 12:11:22;;;;;;;14.75;11.23;;;;;;;;;;5012658;28;20220;-63
2022/05/20 12:13:57;;;;;;;15.18;11.57;;;;;;;;;;5030134;28;20211;-63
2022/05/20 12:16:22;;;;;;;13.90;11.38;;;;;;;;;;5011004;28;20643;-63
2022/05/20 12:24:27;;;;;;;15.40;12.13;;;;;;;;;;4995964;28;20224;-63
2022/05/20 12:26:53;;;;;;;16.42;12.73;;;;;;;;;;5010827;28;20287;-63
2022/05/20 12:29:34;;;;;;;15.95;12.30;;;;;;;;;;5010586;28;20208;-63
2022/05/20 12:31:59;;;;;;;16.67;12.05;;;;;;;;;;5013045;28;20232;-63
2022/05/20 12:34:38;;;;;;;22.08;12.48;;;;;;;;;;5029600;28;20219;-63
2022/05/20 12:37:03;;;;;;;14.85;11.80;;;;;;;;;;5030331;28;20226;-63
2022/05/20 12:39:47;;;;;;;15.95;12.88;;;;;;;;;;5031068;28;20216;-63
2022/05/20 12:42:31;;;;;;;18.33;13.60;;;;;;;;;;5029382;28;20311;-63
2022/05/20 12:44:56;;;;;;;16.70;13.10;;;;;;;;;;4995304;28;20209;-63
2022/05/20 12:47:32;;;;;;;16.95;13.15;;;;;;;;;;4990825;28;20704;-63
2022/05/20 12:50:00;;;;;;;21.80;12.98;;;;;;;;;;4992040;28;20248;-63
2022/05/20 12:52:27;;;;;;;17.48;13.95;;;;;;;;;;5033940;28;20219;-63
2022/05/20 12:54:52;;;;;;;23.27;14.68;;;;;;;;;;5033523;28;20263;-63
2022/05/20 12:57:22;;;;;;;19.95;14.73;;;;;;;;;;5033393;28;20216;-62
2022/05/20 12:59:48;;;;;;;22.63;15.18;;;;;;;;;;5034225;28;20263;-63
2022/05/20 13:02:14;;;;;;;23.23;15.45;;;;;;;;;;5033218;28;20215;-63
2022/05/20 13:04:43;;;;;;;22.35;15.02;;;;;;;;;;5033661;28;20220;-63
2022/05/20 13:07:11;;;;;;;20.70;15.40;;;;;;;;;;5033809;28;20219;-63
2022/05/20 13:09:38;;;;;;;29.83;17.15;;;;;;;;;;5032077;28;20687;-64
2022/05/20 13:12:05;;;;;;;28.52;19.02;;;;;;;;;;5033267;28;20221;-63
2022/05/20 13:14:30;;;;;;;25.30;18.00;;;;;;;;;;5034098;28;20219;-63
2022/05/20 13:16:56;;;;;;;26.88;18.30;;;;;;;;;;5017505;28;20200;-63
2022/05/20 13:19:28;;;;;;;27.77;18.65;;;;;;;;;;5013664;28;20295;-63
2022/05/20 13:22:02;;;;;;;28.48;20.15;;;;;;;;;;5013853;28;20290;-63
2022/05/20 13:24:28;;;;;;;32.83;22.08;;;;;;;;;;5031490;28;20302;-63
2022/05/20 13:27:02;;;;;;;28.60;20.30;;;;;;;;;;5033612;28;20295;-62
2022/05/20 13:29:28;;;;;;;29.88;22.13;;;;;;;;;;5013697;28;20220;-63
2022/05/20 13:32:09;;;;;;;27.55;22.35;;;;;;;;;;5014661;28;20558;-63
2022/05/20 13:34:35;;;;;;;26.38;19.75;;;;;;;;;;5052982;28;20231;-62
2022/05/20 13:37:00;;;;;;;29.40;20.13;;;;;;;;;;5052686;28;20294;-63
2022/05/20 13:39:25;;;;;;;24.25;19.60;;;;;;;;;;5015111;28;20544;-63
2022/05/20 13:41:50;;;;;;;30.15;21.58;;;;;;;;;;5041863;28;20255;-63
2022/05/20 13:44:16;;;;;;;27.00;20.88;;;;;;;;;;5017981;28;20208;-62
2022/05/20 13:49:27;;;;;;;26.42;21.02;;;;;;;;;;5013016;28;20288;-63
2022/05/20 13:51:55;;;;;;;28.42;22.20;;;;;;;;;;5012994;28;20315;-63
2022/05/20 13:54:20;;;;;;;28.33;21.90;;;;;;;;;;5011680;28;20266;-63
2022/05/20 13:56:46;;;;;;;26.90;21.35;;;;;;;;;;5013695;28;20220;-63
2022/05/20 13:59:20;;;;;;;28.65;22.48;;;;;;;;;;5012420;28;20212;-63
2022/05/20 14:01:53;;;;;;;28.98;22.58;;;;;;;;;;5012071;28;20208;-63
2022/05/20 14:04:19;;;;;;;31.02;23.92;;;;;;;;;;5012432;28;20541;-63
2022/05/20 14:06:44;;;;;;;31.55;24.00;;;;;;;;;;5012349;28;20208;-63
2022/05/20 14:09:09;;;;;;;26.95;22.02;;;;;;;;;;5012820;28;20554;-63
2022/05/20 14:11:41;;;;;;;29.17;23.10;;;;;;;;;;5013335;28;20216;-63
2022/05/20 14:14:12;;;;;;;31.85;22.30;;;;;;;;;;5011780;28;20212;-63
2022/05/20 14:16:39;;;;;;;31.73;22.02;;;;;;;;;;5012932;28;20298;-62
2022/05/20 14:19:06;;;;;;;31.70;22.58;;;;;;;;;;4994097;28;20299;-63
2022/05/20 14:21:32;;;;;;;28.92;22.10;;;;;;;;;;5012865;28;20221;-63
2022/05/20 14:24:01;;;;;;;34.53;24.75;;;;;;;;;;5012998;28;20219;-62
2022/05/20 14:26:27;;;;;;;30.42;25.45;;;;;;;;;;5010909;28;20208;-62
2022/05/20 14:28:52;;;;;;;33.15;25.73;;;;;;;;;;5012524;28;20234;-62
2022/05/20 14:31:20;;;;;;;31.30;25.05;;;;;;;;;;5012156;28;20679;-62
2022/05/20 14:33:47;;;;;;;28.33;23.35;;;;;;;;;;5016620;28;20211;-63
2022/05/20 14:36:12;;;;;;;29.40;23.98;;;;;;;;;;5013907;28;20235;-62
2022/05/20 14:38:39;;;;;;;30.92;23.33;;;;;;;;;;5032502;28;20691;-63
2022/05/20 14:41:04;;;;;;;32.67;24.35;;;;;;;;;;5031241;28;20354;-63
2022/05/20 14:43:34;;;;;;;35.05;25.63;;;;;;;;;;5023719;28;20670;-63
2022/05/20 14:46:00;;;;;;;32.00;25.67;;;;;;;;;;5011324;28;20213;-63
2022/05/20 14:48:28;;;;;;;36.50;27.45;;;;;;;;;;5011400;28;20216;-63
2022/05/20 14:50:53;;;;;;;32.22;24.30;;;;;;;;;;5011181;28;20224;-62
2022/05/20 14:53:21;;;;;;;33.22;25.00;;;;;;;;;;5012124;28;20212;-62
2022/05/20 14:55:48;;;;;;;47.33;32.75;;;;;;;;;;5011802;28;20231;-62
2022/05/20 14:58:14;;;;;;;43.58;33.35;;;;;;;;;;5011787;28;20304;-63
2022/05/20 15:00:53;;;;;;;40.88;32.00;;;;;;;;;;5012141;28;20212;-63
2022/05/20 15:03:18;;;;;;;45.78;33.35;;;;;;;;;;5013219;28;20453;-62
2022/05/20 15:05:44;;;;;;;41.08;30.60;;;;;;;;;;5024122;28;20211;-62